Flugplatz Hamburg

Bericht für EDDH

vom 27.04. um 06:20 UTC

Wind 9 kt aus 220°

Sichtweite 10 km oder mehr

gute Sicht, keine Wolken < 5000 ft, keine CB, keine Wettererscheinungen (CAVOK)

Temperatur 8.0°C

Taupunkt 5.0°C

Luftfeuchtigkeit 81%

Luftdruck 1014 hPa

keine wesentliche Wetteränderung innerhalb den nächsten 2 Stunden zu erwarten

EDDH 270620Z 22009KT CAVOK 08/05 Q1014 NOSIG

Prognose für EDDH

vom 27.04. um 05:00 UTC

Zwischen 06:00 UTC und 16:00 UTC

Wind 10 kt aus 210°

Sichtweite 10 km oder mehr

keine signifikanten Wettererscheinungen

keine Wolken


Zwischen 16:00 und 18:00 UTC übergehend zu

Wind 4 kt aus 130°

Sichtweite 10 km oder mehr

keine signifikanten Wettererscheinungen

keine Wolken


Am 28.04. zwischen 07:00 und 09:00 UTC übergehend zu

Wind 7 kt aus 200°

Sichtweite 10 km oder mehr

keine signifikanten Wettererscheinungen

keine Wolken

TAF EDDH 270500Z 2706/2812 21010KT CAVOK BECMG 2716/2718 13004KT BECMG 2807/2809 20007KT
Impressum